Terminal Aerodrome Forecast
Issued by NWS Louisville, KY

Home | Current Version | Previous Version | Text Only | Print | Product List | Glossary On
Versions: 1 2 3 4 5 6 7 8 9 10 11 12 13 14 15
585
FTUS43 KLMK 221134
TAFBWG
TAF
KBWG 221134Z 2212/2312 00000KT 6SM BR FEW250
     FM221300 VRB03KT P6SM SCT250
     FM231000 00000KT 5SM BR FEW250=

USA.gov is the U.S. government's official web portal to all federal, state and local government web resources and services.